sensor_id;sensor_type;location;lat;lon;timestamp;pressure;altitude;pressure_sealevel;temperature;humidity
7670;BME280;3877;42.562;27.636;2022-08-19T00:00:18;101058.91;;;26.46;100.00
7670;BME280;3877;42.562;27.636;2022-08-19T00:02:46;101062.97;;;26.48;100.00
7670;BME280;3877;42.562;27.636;2022-08-19T00:05:14;101066.25;;;26.50;100.00
7670;BME280;3877;42.562;27.636;2022-08-19T00:07:42;101074.47;;;26.48;100.00
7670;BME280;3877;42.562;27.636;2022-08-19T00:10:12;101067.84;;;26.55;100.00
7670;BME280;3877;42.562;27.636;2022-08-19T00:12:40;101071.09;;;26.61;100.00
7670;BME280;3877;42.562;27.636;2022-08-19T00:15:10;101066.94;;;26.62;100.00
7670;BME280;3877;42.562;27.636;2022-08-19T00:17:40;101067.81;;;26.59;100.00
7670;BME280;3877;42.562;27.636;2022-08-19T00:20:09;101078.31;;;26.76;100.00
7670;BME280;3877;42.562;27.636;2022-08-19T00:22:36;101069.81;;;26.65;100.00
7670;BME280;3877;42.562;27.636;2022-08-19T00:25:04;101070.63;;;26.66;100.00
7670;BME280;3877;42.562;27.636;2022-08-19T00:27:32;101066.13;;;26.61;100.00
7670;BME280;3877;42.562;27.636;2022-08-19T00:30:00;101072.69;;;26.62;100.00
7670;BME280;3877;42.562;27.636;2022-08-19T00:32:30;101069.91;;;26.54;100.00
7670;BME280;3877;42.562;27.636;2022-08-19T00:34:58;101072.00;;;26.50;100.00
7670;BME280;3877;42.562;27.636;2022-08-19T00:37:26;101070.41;;;26.42;100.00
7670;BME280;3877;42.562;27.636;2022-08-19T00:39:54;101073.28;;;26.42;100.00
7670;BME280;3877;42.562;27.636;2022-08-19T00:42:22;101074.59;;;26.34;100.00
7670;BME280;3877;42.562;27.636;2022-08-19T00:44:53;101080.66;;;26.43;100.00
7670;BME280;3877;42.562;27.636;2022-08-19T00:47:21;101041.44;;;26.19;100.00
7670;BME280;3877;42.562;27.636;2022-08-19T00:49:50;101063.88;;;26.38;100.00
7670;BME280;3877;42.562;27.636;2022-08-19T00:52:23;101076.59;;;26.37;100.00
7670;BME280;3877;42.562;27.636;2022-08-19T00:54:53;101070.53;;;26.28;100.00
7670;BME280;3877;42.562;27.636;2022-08-19T00:57:24;101070.16;;;26.19;100.00
7670;BME280;3877;42.562;27.636;2022-08-19T00:59:55;101078.06;;;26.08;100.00
7670;BME280;3877;42.562;27.636;2022-08-19T01:02:24;101079.72;;;26.02;100.00
7670;BME280;3877;42.562;27.636;2022-08-19T01:04:51;101083.94;;;25.87;100.00
7670;BME280;3877;42.562;27.636;2022-08-19T01:07:20;101079.84;;;25.84;100.00
7670;BME280;3877;42.562;27.636;2022-08-19T01:09:47;100986.78;;;25.12;100.00
7670;BME280;3877;42.562;27.636;2022-08-19T01:12:16;101080.75;;;25.71;100.00
7670;BME280;3877;42.562;27.636;2022-08-19T01:14:44;101083.22;;;25.68;100.00
7670;BME280;3877;42.562;27.636;2022-08-19T01:17:12;101069.31;;;25.63;100.00
7670;BME280;3877;42.562;27.636;2022-08-19T01:19:41;101076.69;;;25.64;100.00
7670;BME280;3877;42.562;27.636;2022-08-19T01:22:14;101078.31;;;25.65;100.00
7670;BME280;3877;42.562;27.636;2022-08-19T01:24:45;101077.47;;;25.68;100.00
7670;BME280;3877;42.562;27.636;2022-08-19T01:27:12;101086.88;;;25.73;100.00
7670;BME280;3877;42.562;27.636;2022-08-19T01:29:41;101083.22;;;25.68;100.00
7670;BME280;3877;42.562;27.636;2022-08-19T01:32:12;101076.63;;;25.72;100.00
7670;BME280;3877;42.562;27.636;2022-08-19T01:34:40;101080.75;;;25.71;100.00
7670;BME280;3877;42.562;27.636;2022-08-19T01:37:08;101086.50;;;25.67;100.00
7670;BME280;3877;42.562;27.636;2022-08-19T01:39:37;101080.00;;;25.59;100.00
7670;BME280;3877;42.562;27.636;2022-08-19T01:42:07;101075.94;;;25.46;100.00
7670;BME280;3877;42.562;27.636;2022-08-19T01:44:36;101088.19;;;25.50;100.00
7670;BME280;3877;42.562;27.636;2022-08-19T01:47:04;101090.22;;;25.53;100.00
7670;BME280;3877;42.562;27.636;2022-08-19T01:49:32;101082.44;;;25.54;100.00
7670;BME280;3877;42.562;27.636;2022-08-19T01:52:00;101082.44;;;25.54;100.00
7670;BME280;3877;42.562;27.636;2022-08-19T01:54:27;101083.28;;;25.54;100.00
7670;BME280;3877;42.562;27.636;2022-08-19T01:56:59;101071.81;;;25.51;100.00
7670;BME280;3877;42.562;27.636;2022-08-19T01:59:30;101077.56;;;25.44;100.00
7670;BME280;3877;42.562;27.636;2022-08-19T02:01:58;101075.91;;;25.43;100.00
7670;BME280;3877;42.562;27.636;2022-08-19T02:04:25;101079.22;;;25.38;100.00
7670;BME280;3877;42.562;27.636;2022-08-19T02:06:53;101073.13;;;25.25;100.00
7670;BME280;3877;42.562;27.636;2022-08-19T02:09:20;101070.25;;;25.25;100.00
7670;BME280;3877;42.562;27.636;2022-08-19T02:11:47;101074.78;;;25.22;100.00
7670;BME280;3877;42.562;27.636;2022-08-19T02:14:15;101076.41;;;25.31;100.00
7670;BME280;3877;42.562;27.636;2022-08-19T02:16:43;101071.50;;;25.20;100.00
7670;BME280;3877;42.562;27.636;2022-08-19T02:19:10;101059.69;;;25.08;100.00
7670;BME280;3877;42.562;27.636;2022-08-19T02:21:38;101071.91;;;25.19;100.00
7670;BME280;3877;42.562;27.636;2022-08-19T02:24:06;101074.38;;;25.24;100.00
7670;BME280;3877;42.562;27.636;2022-08-19T02:26:33;101066.19;;;25.22;100.00
7670;BME280;3877;42.562;27.636;2022-08-19T02:29:00;101077.22;;;25.31;100.00
7670;BME280;3877;42.562;27.636;2022-08-19T02:31:28;101068.63;;;25.31;100.00
7670;BME280;3877;42.562;27.636;2022-08-19T02:33:57;101077.59;;;25.33;100.00
7670;BME280;3877;42.562;27.636;2022-08-19T02:36:25;101064.88;;;25.38;100.00
7670;BME280;3877;42.562;27.636;2022-08-19T02:38:53;101079.59;;;25.43;100.00
7670;BME280;3877;42.562;27.636;2022-08-19T02:41:22;101080.03;;;25.45;100.00
7670;BME280;3877;42.562;27.636;2022-08-19T02:43:50;101078.38;;;25.44;100.00
7670;BME280;3877;42.562;27.636;2022-08-19T02:46:19;101078.38;;;25.48;100.00
7670;BME280;3877;42.562;27.636;2022-08-19T02:48:48;101068.56;;;25.42;100.00
7670;BME280;3877;42.562;27.636;2022-08-19T02:51:18;101073.44;;;25.48;100.00
7670;BME280;3877;42.562;27.636;2022-08-19T02:53:46;101070.19;;;25.46;100.00
7670;BME280;3877;42.562;27.636;2022-08-19T02:56:13;101076.75;;;25.43;100.00
7670;BME280;3877;42.562;27.636;2022-08-19T02:58:41;101075.56;;;25.37;100.00
7670;BME280;3877;42.562;27.636;2022-08-19T03:01:09;101080.88;;;25.35;100.00
7670;BME280;3877;42.562;27.636;2022-08-19T03:03:38;101080.91;;;25.24;100.00
7670;BME280;3877;42.562;27.636;2022-08-19T03:06:07;101080.09;;;25.24;100.00
7670;BME280;3877;42.562;27.636;2022-08-19T03:08:37;101041.69;;;25.04;100.00
7670;BME280;3877;42.562;27.636;2022-08-19T03:11:04;101085.84;;;25.24;100.00
7670;BME280;3877;42.562;27.636;2022-08-19T03:13:32;101080.50;;;25.26;100.00
7670;BME280;3877;42.562;27.636;2022-08-19T03:15:59;101085.84;;;25.24;100.00
7670;BME280;3877;42.562;27.636;2022-08-19T03:18:26;101085.88;;;25.17;100.00
7670;BME280;3877;42.562;27.636;2022-08-19T03:20:54;101094.44;;;25.20;100.00
7670;BME280;3877;42.562;27.636;2022-08-19T03:23:22;101082.59;;;25.15;100.00
7670;BME280;3877;42.562;27.636;2022-08-19T03:25:52;101092.44;;;25.07;100.00
7670;BME280;3877;42.562;27.636;2022-08-19T03:28:20;101089.94;;;25.19;100.00
7670;BME280;3877;42.562;27.636;2022-08-19T03:30:58;101098.09;;;25.28;100.00
7670;BME280;3877;42.562;27.636;2022-08-19T03:33:28;101103.81;;;25.35;100.00
7670;BME280;3877;42.562;27.636;2022-08-19T03:36:12;101094.81;;;25.37;100.00
7670;BME280;3877;42.562;27.636;2022-08-19T03:38:42;101055.56;;;25.16;100.00
7670;BME280;3877;42.562;27.636;2022-08-19T03:41:13;101102.16;;;25.45;100.00
7670;BME280;3877;42.562;27.636;2022-08-19T03:43:42;101078.38;;;25.44;100.00
7670;BME280;3877;42.562;27.636;2022-08-19T03:46:11;101104.59;;;25.60;100.00
7670;BME280;3877;42.562;27.636;2022-08-19T03:48:40;101102.06;;;25.73;100.00
7670;BME280;3877;42.562;27.636;2022-08-19T03:51:15;101094.69;;;25.68;100.00
7670;BME280;3877;42.562;27.636;2022-08-19T03:53:43;101107.75;;;25.84;100.00
7670;BME280;3877;42.562;27.636;2022-08-19T03:56:12;101102.72;;;25.95;100.00
7670;BME280;3877;42.562;27.636;2022-08-19T03:58:40;101103.56;;;25.99;100.00
7670;BME280;3877;42.562;27.636;2022-08-19T04:01:10;101112.50;;;26.08;100.00
7670;BME280;3877;42.562;27.636;2022-08-19T04:03:38;101107.56;;;26.12;100.00
7670;BME280;3877;42.562;27.636;2022-08-19T04:06:10;101107.50;;;26.19;100.00
7670;BME280;3877;42.562;27.636;2022-08-19T04:08:38;101105.88;;;26.22;100.00
7670;BME280;3877;42.562;27.636;2022-08-19T04:11:07;101106.59;;;26.33;100.00
7670;BME280;3877;42.562;27.636;2022-08-19T04:13:36;101114.34;;;26.39;100.00
7670;BME280;3877;42.562;27.636;2022-08-19T04:16:04;101107.75;;;26.42;100.00
7670;BME280;3877;42.562;27.636;2022-08-19T04:18:33;101101.56;;;26.47;100.00
7670;BME280;3877;42.562;27.636;2022-08-19T04:21:00;101114.53;;;26.66;100.00
7670;BME280;3877;42.562;27.636;2022-08-19T04:23:27;101116.03;;;26.81;100.00
7670;BME280;3877;42.562;27.636;2022-08-19T04:25:55;101117.53;;;27.00;100.00
7670;BME280;3877;42.562;27.636;2022-08-19T04:28:23;101123.13;;;27.14;100.00
7670;BME280;3877;42.562;27.636;2022-08-19T04:30:54;101114.75;;;27.30;100.00
7670;BME280;3877;42.562;27.636;2022-08-19T04:33:23;101114.16;;;27.42;100.00
7670;BME280;3877;42.562;27.636;2022-08-19T04:35:52;101122.75;;;27.50;100.00
7670;BME280;3877;42.562;27.636;2022-08-19T04:38:20;101124.97;;;27.69;100.00
7670;BME280;3877;42.562;27.636;2022-08-19T04:40:50;101123.81;;;27.93;100.00
7670;BME280;3877;42.562;27.636;2022-08-19T04:43:37;101109.19;;;28.11;100.00
7670;BME280;3877;42.562;27.636;2022-08-19T04:46:06;101107.38;;;28.70;100.00
7670;BME280;3877;42.562;27.636;2022-08-19T04:48:34;101116.44;;;29.39;100.00
7670;BME280;3877;42.562;27.636;2022-08-19T04:51:06;101115.63;;;29.38;100.00
7670;BME280;3877;42.562;27.636;2022-08-19T04:53:35;101117.56;;;29.65;100.00
7670;BME280;3877;42.562;27.636;2022-08-19T04:56:05;101114.72;;;29.61;100.00
7670;BME280;3877;42.562;27.636;2022-08-19T04:58:34;101097.19;;;29.52;100.00
7670;BME280;3877;42.562;27.636;2022-08-19T05:01:02;101109.03;;;30.13;100.00
7670;BME280;3877;42.562;27.636;2022-08-19T05:03:30;101116.25;;;31.06;100.00
7670;BME280;3877;42.562;27.636;2022-08-19T05:06:04;101101.09;;;31.59;100.00
7670;BME280;3877;42.562;27.636;2022-08-19T05:08:34;101116.09;;;31.96;100.00
7670;BME280;3877;42.562;27.636;2022-08-19T05:11:08;101107.84;;;31.82;100.00
7670;BME280;3877;42.562;27.636;2022-08-19T05:13:36;101092.00;;;31.99;100.00
7670;BME280;3877;42.562;27.636;2022-08-19T05:16:04;101098.47;;;32.03;100.00
7670;BME280;3877;42.562;27.636;2022-08-19T05:18:33;101103.72;;;32.59;100.00
7670;BME280;3877;42.562;27.636;2022-08-19T05:21:19;101113.28;;;32.93;100.00
7670;BME280;3877;42.562;27.636;2022-08-19T05:24:04;101106.00;;;32.89;100.00
7670;BME280;3877;42.562;27.636;2022-08-19T05:26:35;101111.88;;;32.64;100.00
7670;BME280;3877;42.562;27.636;2022-08-19T05:29:02;101092.34;;;32.77;100.00
7670;BME280;3877;42.562;27.636;2022-08-19T05:31:30;101109.00;;;32.98;100.00
7670;BME280;3877;42.562;27.636;2022-08-19T05:33:59;101109.69;;;33.02;100.00
7670;BME280;3877;42.562;27.636;2022-08-19T05:36:27;100998.91;;;32.22;100.00
7670;BME280;3877;42.562;27.636;2022-08-19T05:38:55;101106.31;;;33.04;100.00
7670;BME280;3877;42.562;27.636;2022-08-19T05:41:22;101112.91;;;33.04;100.00
7670;BME280;3877;42.562;27.636;2022-08-19T05:43:54;101114.78;;;32.64;100.00
7670;BME280;3877;42.562;27.636;2022-08-19T05:46:22;101104.91;;;32.48;100.00
7670;BME280;3877;42.562;27.636;2022-08-19T05:48:50;101113.47;;;32.52;100.00
7670;BME280;3877;42.562;27.636;2022-08-19T05:51:18;101115.91;;;32.53;100.00
7670;BME280;3877;42.562;27.636;2022-08-19T05:53:46;101093.16;;;32.52;100.00
7670;BME280;3877;42.562;27.636;2022-08-19T05:56:14;101107.31;;;32.75;100.00
7670;BME280;3877;42.562;27.636;2022-08-19T05:58:44;101081.81;;;32.45;100.00
7670;BME280;3877;42.562;27.636;2022-08-19T06:01:13;101110.44;;;32.55;100.00
7670;BME280;3877;42.562;27.636;2022-08-19T06:03:40;101101.16;;;32.61;100.00
7670;BME280;3877;42.562;27.636;2022-08-19T06:06:09;101107.53;;;32.55;100.00
7670;BME280;3877;42.562;27.636;2022-08-19T06:08:38;101103.41;;;32.44;100.00
7670;BME280;3877;42.562;27.636;2022-08-19T06:11:17;101106.53;;;32.24;100.00
7670;BME280;3877;42.562;27.636;2022-08-19T06:13:46;101107.59;;;32.30;100.00
7670;BME280;3877;42.562;27.636;2022-08-19T06:16:17;101101.88;;;32.14;100.00
7670;BME280;3877;42.562;27.636;2022-08-19T06:18:49;101093.78;;;32.22;100.00
7670;BME280;3877;42.562;27.636;2022-08-19T06:21:18;101091.47;;;32.29;100.00
7670;BME280;3877;42.562;27.636;2022-08-19T06:23:47;101112.34;;;32.24;100.00
7670;BME280;3877;42.562;27.636;2022-08-19T06:26:17;101096.75;;;32.05;100.00
7670;BME280;3877;42.562;27.636;2022-08-19T06:28:45;101101.00;;;31.76;100.00
7670;BME280;3877;42.562;27.636;2022-08-19T06:31:13;101104.16;;;31.52;100.00
7670;BME280;3877;42.562;27.636;2022-08-19T06:33:42;101102.63;;;31.64;100.00
7670;BME280;3877;42.562;27.636;2022-08-19T06:36:17;101104.13;;;31.68;100.00
7670;BME280;3877;42.562;27.636;2022-08-19T06:38:45;101095.47;;;31.52;100.00
7670;BME280;3877;42.562;27.636;2022-08-19T06:41:14;101111.22;;;31.51;100.00
7670;BME280;3877;42.562;27.636;2022-08-19T06:43:41;101109.09;;;31.39;100.00
7670;BME280;3877;42.562;27.636;2022-08-19T06:46:11;101107.34;;;31.42;100.00
7670;BME280;3877;42.562;27.636;2022-08-19T06:48:38;101109.44;;;31.41;100.00
7670;BME280;3877;42.562;27.636;2022-08-19T06:51:05;101105.09;;;31.49;100.00
7670;BME280;3877;42.562;27.636;2022-08-19T06:53:33;101087.50;;;31.27;100.00
7670;BME280;3877;42.562;27.636;2022-08-19T06:56:00;101100.41;;;31.39;100.00
7670;BME280;3877;42.562;27.636;2022-08-19T06:58:29;101104.97;;;31.24;100.00
7670;BME280;3877;42.562;27.636;2022-08-19T07:01:00;101094.47;;;31.30;100.00
7670;BME280;3877;42.562;27.636;2022-08-19T07:03:30;101091.44;;;31.21;100.00
7670;BME280;3877;42.562;27.636;2022-08-19T07:05:58;101089.00;;;31.19;100.00
7670;BME280;3877;42.562;27.636;2022-08-19T07:08:29;101092.34;;;31.18;100.00
7670;BME280;3877;42.562;27.636;2022-08-19T07:10:56;101099.25;;;30.92;100.00
7670;BME280;3877;42.562;27.636;2022-08-19T07:13:23;101088.00;;;30.94;100.00
7670;BME280;3877;42.562;27.636;2022-08-19T07:15:52;101069.25;;;30.85;100.00
7670;BME280;3877;42.562;27.636;2022-08-19T07:18:20;101096.69;;;31.10;100.00
7670;BME280;3877;42.562;27.636;2022-08-19T07:20:47;101082.59;;;31.12;100.00
7670;BME280;3877;42.562;27.636;2022-08-19T07:23:15;101080.31;;;31.19;100.00
7670;BME280;3877;42.562;27.636;2022-08-19T07:25:43;101059.13;;;31.22;100.00
7670;BME280;3877;42.562;27.636;2022-08-19T07:28:10;101075.44;;;31.45;100.00
7670;BME280;3877;42.562;27.636;2022-08-19T07:30:37;101077.03;;;31.46;100.00
7670;BME280;3877;42.562;27.636;2022-08-19T07:33:07;101050.97;;;31.46;100.00
7670;BME280;3877;42.562;27.636;2022-08-19T07:35:35;101077.69;;;31.66;100.00
7670;BME280;3877;42.562;27.636;2022-08-19T07:38:02;101066.25;;;31.76;100.00
7670;BME280;3877;42.562;27.636;2022-08-19T07:40:30;101071.59;;;31.77;100.00
7670;BME280;3877;42.562;27.636;2022-08-19T07:42:58;101076.81;;;31.82;100.00
7670;BME280;3877;42.562;27.636;2022-08-19T07:45:25;101063.03;;;31.86;100.00
7670;BME280;3877;42.562;27.636;2022-08-19T07:47:52;101024.31;;;31.67;100.00
7670;BME280;3877;42.562;27.636;2022-08-19T07:50:21;101069.16;;;32.01;100.00
7670;BME280;3877;42.562;27.636;2022-08-19T07:52:49;101065.69;;;32.06;100.00
7670;BME280;3877;42.562;27.636;2022-08-19T07:55:20;101063.72;;;32.03;100.00
7670;BME280;3877;42.562;27.636;2022-08-19T07:57:47;101051.66;;;32.04;100.00
7670;BME280;3877;42.562;27.636;2022-08-19T08:00:15;101058.31;;;32.30;100.00
7670;BME280;3877;42.562;27.636;2022-08-19T08:02:42;101065.13;;;32.24;100.00
7670;BME280;3877;42.562;27.636;2022-08-19T08:05:10;101028.13;;;31.90;100.00
7670;BME280;3877;42.562;27.636;2022-08-19T08:07:56;101069.06;;;32.04;100.00
7670;BME280;3877;42.562;27.636;2022-08-19T08:10:40;101066.41;;;32.10;100.00
7670;BME280;3877;42.562;27.636;2022-08-19T08:13:08;101060.16;;;32.24;100.00
7670;BME280;3877;42.562;27.636;2022-08-19T08:15:35;101059.31;;;32.49;100.00
7670;BME280;3877;42.562;27.636;2022-08-19T08:18:04;101053.06;;;32.63;100.00
7670;BME280;3877;42.562;27.636;2022-08-19T08:20:31;101056.38;;;32.62;100.00
7670;BME280;3877;42.562;27.636;2022-08-19T08:23:00;101057.09;;;32.66;100.00
7670;BME280;3877;42.562;27.636;2022-08-19T08:25:45;101045.72;;;32.59;100.00
7670;BME280;3877;42.562;27.636;2022-08-19T08:28:13;101051.06;;;32.73;100.00
7670;BME280;3877;42.562;27.636;2022-08-19T08:30:41;101058.22;;;32.81;100.00
7670;BME280;3877;42.562;27.636;2022-08-19T08:33:10;101052.34;;;32.59;100.00
7670;BME280;3877;42.562;27.636;2022-08-19T08:35:37;101041.09;;;32.48;100.00
7670;BME280;3877;42.562;27.636;2022-08-19T08:38:06;101048.91;;;32.86;100.00
7670;BME280;3877;42.562;27.636;2022-08-19T08:40:39;101052.94;;;33.01;100.00
7670;BME280;3877;42.562;27.636;2022-08-19T08:43:18;101044.16;;;33.26;100.00
7670;BME280;3877;42.562;27.636;2022-08-19T08:45:51;101060.97;;;32.97;100.00
7670;BME280;3877;42.562;27.636;2022-08-19T08:48:24;101055.31;;;33.37;100.00
7670;BME280;3877;42.562;27.636;2022-08-19T08:50:55;101045.00;;;33.58;98.61
7670;BME280;3877;42.562;27.636;2022-08-19T08:53:25;101056.16;;;33.59;99.03
7670;BME280;3877;42.562;27.636;2022-08-19T08:55:53;101058.66;;;33.14;100.00
7670;BME280;3877;42.562;27.636;2022-08-19T08:58:31;101053.59;;;32.71;100.00
7670;BME280;3877;42.562;27.636;2022-08-19T09:01:09;101066.28;;;32.64;100.00
7670;BME280;3877;42.562;27.636;2022-08-19T09:03:37;101054.44;;;32.46;100.00
7670;BME280;3877;42.562;27.636;2022-08-19T09:06:11;101068.94;;;32.59;100.00
7670;BME280;3877;42.562;27.636;2022-08-19T09:08:47;101065.81;;;33.00;100.00
7670;BME280;3877;42.562;27.636;2022-08-19T09:11:20;101070.16;;;33.17;100.00
7670;BME280;3877;42.562;27.636;2022-08-19T09:14:02;101074.00;;;32.80;100.00
7670;BME280;3877;42.562;27.636;2022-08-19T09:16:33;101071.34;;;32.60;100.00
7670;BME280;3877;42.562;27.636;2022-08-19T09:19:03;101066.34;;;32.61;100.00
7670;BME280;3877;42.562;27.636;2022-08-19T09:21:31;101066.84;;;32.72;100.00
7670;BME280;3877;42.562;27.636;2022-08-19T09:24:02;101075.69;;;33.03;100.00
7670;BME280;3877;42.562;27.636;2022-08-19T09:26:31;101072.47;;;33.22;100.00
7670;BME280;3877;42.562;27.636;2022-08-19T09:29:00;101070.06;;;33.42;100.00
7670;BME280;3877;42.562;27.636;2022-08-19T09:31:31;101070.34;;;33.35;100.00
7670;BME280;3877;42.562;27.636;2022-08-19T09:33:58;101063.56;;;33.38;100.00
7670;BME280;3877;42.562;27.636;2022-08-19T09:36:27;101069.03;;;33.36;100.00
7670;BME280;3877;42.562;27.636;2022-08-19T09:38:58;101066.47;;;33.38;100.00
7670;BME280;3877;42.562;27.636;2022-08-19T09:41:28;101050.44;;;33.56;100.00
7670;BME280;3877;42.562;27.636;2022-08-19T09:43:56;101030.03;;;33.03;100.00
7670;BME280;3877;42.562;27.636;2022-08-19T09:46:26;101064.63;;;33.10;100.00
7670;BME280;3877;42.562;27.636;2022-08-19T09:48:54;101058.13;;;33.06;100.00
7670;BME280;3877;42.562;27.636;2022-08-19T09:51:25;101049.41;;;33.40;100.00
7670;BME280;3877;42.562;27.636;2022-08-19T09:53:54;101051.41;;;33.74;100.00
7670;BME280;3877;42.562;27.636;2022-08-19T09:56:23;101058.81;;;33.97;100.00
7670;BME280;3877;42.562;27.636;2022-08-19T09:58:52;101065.56;;;33.94;100.00
7670;BME280;3877;42.562;27.636;2022-08-19T10:01:21;101061.19;;;34.20;100.00
7670;BME280;3877;42.562;27.636;2022-08-19T10:03:50;101057.25;;;34.14;100.00
7670;BME280;3877;42.562;27.636;2022-08-19T10:06:18;101063.34;;;34.07;100.00
7670;BME280;3877;42.562;27.636;2022-08-19T10:08:46;101062.13;;;34.17;100.00
7670;BME280;3877;42.562;27.636;2022-08-19T10:11:14;101071.94;;;34.60;100.00
7670;BME280;3877;42.562;27.636;2022-08-19T10:13:43;101077.94;;;34.65;100.00
7670;BME280;3877;42.562;27.636;2022-08-19T10:16:14;101079.56;;;34.17;100.00
7670;BME280;3877;42.562;27.636;2022-08-19T10:18:42;101076.50;;;33.90;100.00
7670;BME280;3877;42.562;27.636;2022-08-19T10:21:12;101094.88;;;33.65;100.00
7670;BME280;3877;42.562;27.636;2022-08-19T10:23:42;101077.03;;;33.45;100.00
7670;BME280;3877;42.562;27.636;2022-08-19T10:26:13;101082.34;;;33.47;100.00
7670;BME280;3877;42.562;27.636;2022-08-19T10:28:40;101093.16;;;33.24;100.00
7670;BME280;3877;42.562;27.636;2022-08-19T10:31:10;101092.13;;;32.71;100.00
7670;BME280;3877;42.562;27.636;2022-08-19T10:33:39;101092.13;;;32.59;100.00
7670;BME280;3877;42.562;27.636;2022-08-19T10:36:09;101091.16;;;32.87;100.00
7670;BME280;3877;42.562;27.636;2022-08-19T10:38:37;101078.19;;;32.79;100.00
7670;BME280;3877;42.562;27.636;2022-08-19T10:41:09;101088.59;;;32.89;100.00
7670;BME280;3877;42.562;27.636;2022-08-19T10:43:37;100990.13;;;32.13;100.00
7670;BME280;3877;42.562;27.636;2022-08-19T10:46:05;101092.53;;;32.95;100.00
7670;BME280;3877;42.562;27.636;2022-08-19T10:48:33;101090.38;;;33.08;100.00
7670;BME280;3877;42.562;27.636;2022-08-19T10:51:02;101094.59;;;33.07;100.00
7670;BME280;3877;42.562;27.636;2022-08-19T10:53:47;101083.28;;;32.87;100.00
7670;BME280;3877;42.562;27.636;2022-08-19T10:56:14;101088.19;;;32.78;100.00
7670;BME280;3877;42.562;27.636;2022-08-19T10:58:59;101085.66;;;32.54;100.00
7670;BME280;3877;42.562;27.636;2022-08-19T11:01:29;101096.78;;;32.69;100.00
7670;BME280;3877;42.562;27.636;2022-08-19T11:03:59;101094.91;;;32.75;100.00
7670;BME280;3877;42.562;27.636;2022-08-19T11:06:28;101094.53;;;32.85;100.00
7670;BME280;3877;42.562;27.636;2022-08-19T11:08:56;101090.13;;;32.81;100.00
7670;BME280;3877;42.562;27.636;2022-08-19T11:11:23;101095.44;;;32.95;100.00
7670;BME280;3877;42.562;27.636;2022-08-19T11:13:51;101096.69;;;32.94;100.00
7670;BME280;3877;42.562;27.636;2022-08-19T11:16:20;101087.91;;;32.85;100.00
7670;BME280;3877;42.562;27.636;2022-08-19T11:18:49;101098.09;;;33.02;100.00
7670;BME280;3877;42.562;27.636;2022-08-19T11:21:21;101093.28;;;33.21;100.00
7670;BME280;3877;42.562;27.636;2022-08-19T11:23:52;101086.66;;;33.20;100.00
7670;BME280;3877;42.562;27.636;2022-08-19T11:26:20;101081.88;;;33.14;100.00
7670;BME280;3877;42.562;27.636;2022-08-19T11:28:50;101087.13;;;33.19;100.00
7670;BME280;3877;42.562;27.636;2022-08-19T11:31:21;101091.66;;;33.20;100.00
7670;BME280;3877;42.562;27.636;2022-08-19T11:33:49;101083.38;;;33.31;100.00
7670;BME280;3877;42.562;27.636;2022-08-19T11:36:19;101092.28;;;33.02;100.00
7670;BME280;3877;42.562;27.636;2022-08-19T11:38:47;101062.00;;;32.90;100.00
7670;BME280;3877;42.562;27.636;2022-08-19T11:41:18;101077.34;;;32.91;100.00
7670;BME280;3877;42.562;27.636;2022-08-19T11:43:46;101075.19;;;32.70;100.00
7670;BME280;3877;42.562;27.636;2022-08-19T11:46:15;101074.97;;;32.51;100.00
7670;BME280;3877;42.562;27.636;2022-08-19T11:48:43;101071.03;;;32.45;100.00
7670;BME280;3877;42.562;27.636;2022-08-19T11:51:12;101062.31;;;32.58;100.00
7670;BME280;3877;42.562;27.636;2022-08-19T11:53:39;101069.66;;;32.97;100.00
7670;BME280;3877;42.562;27.636;2022-08-19T11:56:08;101064.63;;;33.10;100.00
7670;BME280;3877;42.562;27.636;2022-08-19T11:58:38;101069.06;;;33.02;100.00
7670;BME280;3877;42.562;27.636;2022-08-19T12:01:08;101065.75;;;33.25;100.00
7670;BME280;3877;42.562;27.636;2022-08-19T12:03:37;101064.38;;;33.39;100.00
7670;BME280;3877;42.562;27.636;2022-08-19T12:06:05;101063.56;;;33.38;100.00
7670;BME280;3877;42.562;27.636;2022-08-19T12:08:33;101050.78;;;33.36;100.00
7670;BME280;3877;42.562;27.636;2022-08-19T12:11:01;101060.06;;;33.44;100.00
7670;BME280;3877;42.562;27.636;2022-08-19T12:13:29;101037.50;;;33.48;100.00
7670;BME280;3877;42.562;27.636;2022-08-19T12:15:58;101057.63;;;33.64;100.00
7670;BME280;3877;42.562;27.636;2022-08-19T12:18:25;101055.72;;;33.70;100.00
7670;BME280;3877;42.562;27.636;2022-08-19T12:20:53;101055.84;;;33.66;100.00
7670;BME280;3877;42.562;27.636;2022-08-19T12:23:21;101040.31;;;33.60;100.00
7670;BME280;3877;42.562;27.636;2022-08-19T12:25:49;101048.22;;;33.60;100.00
7670;BME280;3877;42.562;27.636;2022-08-19T12:28:18;101018.84;;;33.36;100.00
7670;BME280;3877;42.562;27.636;2022-08-19T12:30:46;101047.28;;;33.63;100.00
7670;BME280;3877;42.562;27.636;2022-08-19T12:33:15;101040.28;;;33.29;100.00
7670;BME280;3877;42.562;27.636;2022-08-19T12:35:43;101036.25;;;33.14;100.00
7670;BME280;3877;42.562;27.636;2022-08-19T12:38:12;101045.06;;;33.23;100.00
7670;BME280;3877;42.562;27.636;2022-08-19T12:40:40;101046.16;;;33.17;100.00
7670;BME280;3877;42.562;27.636;2022-08-19T12:43:08;101047.50;;;33.12;100.00
7670;BME280;3877;42.562;27.636;2022-08-19T12:45:37;101045.28;;;32.94;100.00
7670;BME280;3877;42.562;27.636;2022-08-19T12:48:05;101043.53;;;32.97;100.00
7670;BME280;3877;42.562;27.636;2022-08-19T12:50:34;101041.91;;;32.96;100.00
7670;BME280;3877;42.562;27.636;2022-08-19T12:53:01;101044.47;;;32.94;100.00
7670;BME280;3877;42.562;27.636;2022-08-19T12:55:28;101037.16;;;33.02;100.00
7670;BME280;3877;42.562;27.636;2022-08-19T12:57:56;101047.81;;;33.05;100.00
7670;BME280;3877;42.562;27.636;2022-08-19T13:00:24;101044.81;;;32.96;100.00